Disclaimer

Please do not use the information listed here in-flight or in-navigation, as they are not provided to us by the airports but are provided by volunteers, so they might be outdated.

Search


Regions


Airport information page

Radio informations:
Tower (TWR) - 118.9 MHz
Ground (GND) - 121.9 MHz
Approach (APP) - 119.4 MHz

Airport informations:
Latitude: 12° 00' 15.29" N
Longitude: 061° 47' 10.29" W
Elevation: 41 feet - 12 meters
Operating hours: Remarks
Operating agency: Civil government, landing fees and diplomatic clearance may be required
Timezone: UTC-4
Fuel: N/A

Runway information:
10/28 - 9003 x 148 feet< - >2744 x 45 meters

Recent METARs:
TGPY 191600Z 08015KT 9999 BKN015CB 29/25 Q1013 NOSIG CB-E/NE/N
TGPY 191600Z 08015KT 9999 BKN015CB 29/25 Q1013 NOSIG CB-E/NE/N
TGPY 191700Z 08015KT 9999 SCT018 SCT038 29/24 Q1012 NOSIG

Airport on the map: